NCAR-RAP Real-Time Weather Data

Output produced by METARs form (27 July 2017  18:46 UTC)
found at http://weather.rap.ucar.edu/surface/
 
Conditions at: KPGD observed 27 July 2017  17:53 UTC
Temperature: 32.2°C (90°F)
Dewpoint: 23.9°C (75°F) [RH = 62%]
Pressure (altimeter): 30.03 inches Hg (1017.0 mb)
[Sea-level pressure: 1016.8 mb]
Winds: variable direction winds at 6 MPH (5 knots; 2.6 m/s)
Visibility: 10 or more miles (16+ km)
Ceiling: at least 12,000 feet AGL
Clouds: sky clear below 12,000 feet AGL
Present Weather: no significant weather observed at this time
KPGD 271753Z VRB05KT 10SM CLR 32/24 A3003 RMK AO2 SLP168 T03220239 10328 20261 58009

Conditions at: KPGD observed 27 July 2017  16:53 UTC
Temperature: 32.2°C (90°F)
Dewpoint: 23.9°C (75°F) [RH = 62%]
Pressure (altimeter): 30.04 inches Hg (1017.4 mb)
[Sea-level pressure: 1017.3 mb]
Winds: from the WSW (250 degrees) at 8 MPH (7 knots; 3.6 m/s)
Visibility: 10 or more miles (16+ km)
Ceiling: at least 12,000 feet AGL
Clouds: few clouds at 3200 feet AGL
scattered clouds at 5500 feet AGL
scattered clouds at 8000 feet AGL
Present Weather: no significant weather observed at this time
KPGD 271653Z 25007KT 10SM FEW032 SCT055 SCT080 32/24 A3004 RMK AO2 SLP173 T03220239

Conditions at: KPGD observed 27 July 2017  15:53 UTC
Temperature: 32.2°C (90°F)
Dewpoint: 23.9°C (75°F) [RH = 62%]
Pressure (altimeter): 30.05 inches Hg (1017.7 mb)
[Sea-level pressure: 1017.5 mb]
Winds: from the S (190 degrees) at 5 MPH (4 knots; 2.1 m/s)
Visibility: 10 or more miles (16+ km)
Ceiling: at least 12,000 feet AGL
Clouds: few clouds at 3400 feet AGL
Present Weather: no significant weather observed at this time
KPGD 271553Z 19004KT 10SM FEW034 32/24 A3005 RMK AO2 LTG DSNT W SLP175 T03220239

Conditions at: KPGD observed 27 July 2017  14:53 UTC
Temperature: 31.1°C (88°F)
Dewpoint: 24.4°C (76°F) [RH = 68%]
Pressure (altimeter): 30.05 inches Hg (1017.7 mb)
[Sea-level pressure: 1017.7 mb]
Winds: from the S (190 degrees) at 7 MPH (6 knots; 3.1 m/s)
Visibility: 10 or more miles (16+ km)
Ceiling: at least 12,000 feet AGL
Clouds: few clouds at 2700 feet AGL
Present Weather: no significant weather observed at this time
KPGD 271453Z 19006KT 10SM FEW027 31/24 A3005 RMK AO2 SLP177 T03110244 53001

Conditions at: KPGD observed 27 July 2017  13:53 UTC
Temperature: 30.6°C (87°F)
Dewpoint: 24.4°C (76°F) [RH = 70%]
Pressure (altimeter): 30.05 inches Hg (1017.7 mb)
[Sea-level pressure: 1017.7 mb]
Winds: variable direction winds at 7 MPH (6 knots; 3.1 m/s)
Visibility: 10 or more miles (16+ km)
Ceiling: at least 12,000 feet AGL
Clouds: sky clear below 12,000 feet AGL
Present Weather: no significant weather observed at this time
KPGD 271353Z VRB06KT 10SM CLR 31/24 A3005 RMK AO2 SLP177 T03060244

Conditions at: KPGD observed 27 July 2017  12:53 UTC
Temperature: 28.3°C (83°F)
Dewpoint: 24.4°C (76°F) [RH = 79%]
Pressure (altimeter): 30.05 inches Hg (1017.7 mb)
[Sea-level pressure: 1017.7 mb]
Winds: calm
Visibility: 10 or more miles (16+ km)
Ceiling: at least 12,000 feet AGL
Clouds: sky clear below 12,000 feet AGL
Present Weather: no significant weather observed at this time
KPGD 271253Z 00000KT 10SM CLR 28/24 A3005 RMK AO2 SLP177 T02830244

Conditions at: KPGD observed 27 July 2017  11:53 UTC
Temperature: 25.6°C (78°F)
Dewpoint: 23.9°C (75°F) [RH = 90%]
Pressure (altimeter): 30.05 inches Hg (1017.7 mb)
[Sea-level pressure: 1017.6 mb]
Winds: calm
Visibility: 10 or more miles (16+ km)
Ceiling: at least 12,000 feet AGL
Clouds: sky clear below 12,000 feet AGL
Present Weather: no significant weather observed at this time
KPGD 271153Z 00000KT 10SM CLR 26/24 A3005 RMK AO2 SLP176 60000 70098 T02560239 10256 20244 51010

Conditions at: KPGD observed 27 July 2017  10:53 UTC
Temperature: 24.4°C (76°F)
Dewpoint: 23.9°C (75°F) [RH = 97%]
Pressure (altimeter): 30.05 inches Hg (1017.7 mb)
[Sea-level pressure: 1017.4 mb]
Winds: calm
Visibility: 10 or more miles (16+ km)
Ceiling: at least 12,000 feet AGL
Clouds: few clouds at 3800 feet AGL
Present Weather: no significant weather observed at this time
KPGD 271053Z 00000KT 10SM FEW038 24/24 A3005 RMK AO2 SLP174 T02440239

Conditions at: KPGD observed 27 July 2017  09:53 UTC
Temperature: 25.0°C (77°F)
Dewpoint: 23.9°C (75°F) [RH = 94%]
Pressure (altimeter): 30.04 inches Hg (1017.4 mb)
[Sea-level pressure: 1017.4 mb]
Winds: from the ENE (60 degrees) at 3 MPH (3 knots; 1.6 m/s)
Visibility: 10 or more miles (16+ km)
Ceiling: at least 12,000 feet AGL
Clouds: sky clear below 12,000 feet AGL
Present Weather:
SOME DATA ABOVE MAY BE INACCURATE!!!
"$" is an indication the sensor requires maintenance
KPGD 270953Z AUTO 06003KT 10SM CLR 25/24 A3004 RMK AO2 SLP174 T02500239 $

Conditions at: KPGD observed 27 July 2017  08:53 UTC
Temperature: 25.0°C (77°F)
Dewpoint: 23.3°C (74°F) [RH = 90%]
Pressure (altimeter): 30.02 inches Hg (1016.7 mb)
[Sea-level pressure: 1016.6 mb]
Winds: from the E (90 degrees) at 6 MPH (5 knots; 2.6 m/s)
Visibility: 10 or more miles (16+ km)
Ceiling: at least 12,000 feet AGL
Clouds: few clouds at 2900 feet AGL
scattered clouds at 3500 feet AGL
Present Weather:
SOME DATA ABOVE MAY BE INACCURATE!!!
"$" is an indication the sensor requires maintenance
KPGD 270853Z AUTO 09005KT 10SM FEW029 SCT035 25/23 A3002 RMK AO2 SLP166 60000 T02500233 56006 $

Conditions at: KPGD observed 27 July 2017  08:51 UTC
Temperature: 25.0°C (77°F)
Dewpoint: 23.0°C (73°F) [RH = 89%]
Pressure (altimeter): 30.02 inches Hg (1016.7 mb)
Winds: from the E (90 degrees) at 6 MPH (5 knots; 2.6 m/s)
Visibility: 10 or more miles (16+ km)
Ceiling: 3300 feet AGL
Clouds: few clouds at 2900 feet AGL
broken clouds at 3300 feet AGL
Present Weather:
SOME DATA ABOVE MAY BE INACCURATE!!!
"$" is an indication the sensor requires maintenance
KPGD 270851Z AUTO 09005KT 10SM FEW029 BKN033 25/23 A3002 RMK AO2 $

Conditions at: KPGD observed 27 July 2017  08:09 UTC
Temperature: 25.6°C (78°F)
Dewpoint: 23.9°C (75°F) [RH = 90%]
Pressure (altimeter): 30.03 inches Hg (1017.0 mb)
Winds: from the S (170 degrees) at 6 MPH (5 knots; 2.6 m/s)
Visibility: 10 or more miles (16+ km)
Ceiling: 2700 feet AGL
Clouds: broken clouds at 2700 feet AGL
Present Weather:
SOME DATA ABOVE MAY BE INACCURATE!!!
"$" is an indication the sensor requires maintenance
KPGD 270809Z AUTO 17005KT 10SM BKN027 26/24 A3003 RMK AO2 T02560239 $

Conditions at: KPGD observed 27 July 2017  07:53 UTC
Temperature: 25.0°C (77°F)
Dewpoint: 23.9°C (75°F) [RH = 94%]
Pressure (altimeter): 30.02 inches Hg (1016.7 mb)
[Sea-level pressure: 1016.6 mb]
Winds: calm
Visibility: 10 or more miles (16+ km)
Ceiling: at least 12,000 feet AGL
Clouds: sky clear below 12,000 feet AGL
Present Weather:
SOME DATA ABOVE MAY BE INACCURATE!!!
"$" is an indication the sensor requires maintenance
KPGD 270753Z AUTO 00000KT 10SM CLR 25/24 A3002 RMK AO2 SLP166 T02500239 $

Conditions at: KPGD observed 27 July 2017  06:53 UTC
Temperature: 25.6°C (78°F)
Dewpoint: 23.9°C (75°F) [RH = 90%]
Pressure (altimeter): 30.04 inches Hg (1017.4 mb)
[Sea-level pressure: 1017.2 mb]
Winds: from the SSW (210 degrees) at 5 MPH (4 knots; 2.1 m/s)
Visibility: 10 or more miles (16+ km)
Ceiling: at least 12,000 feet AGL
Clouds: sky clear below 12,000 feet AGL
Present Weather:
SOME DATA ABOVE MAY BE INACCURATE!!!
"$" is an indication the sensor requires maintenance
KPGD 270653Z AUTO 21004KT 10SM CLR 26/24 A3004 RMK AO2 RAE07 SLP172 P0000 T02560239 $

Conditions at: KPGD observed 27 July 2017  06:10 UTC
Temperature: 25.0°C (77°F)
Dewpoint: 22.8°C (73°F) [RH = 88%]
Pressure (altimeter): 30.07 inches Hg (1018.4 mb)
Winds: from the E (80 degrees) at 6 MPH (5 knots; 2.6 m/s)
Visibility: 10 or more miles (16+ km)
Ceiling: 10000 feet AGL
Clouds: scattered clouds at 4500 feet AGL
broken clouds at 10000 feet AGL
broken clouds at 12000 feet AGL
Present Weather:
SOME DATA ABOVE MAY BE INACCURATE!!!
"$" is an indication the sensor requires maintenance
KPGD 270610Z AUTO 08005KT 10SM SCT045 BKN100 BKN120 25/23 A3007 RMK AO2 LTG DSNT ALQDS RAE07 P0000 T02500228 $

Conditions at: KPGD observed 27 July 2017  05:53 UTC
Temperature: 25.0°C (77°F)
Dewpoint: 23.3°C (74°F) [RH = 90%]
Pressure (altimeter): 30.07 inches Hg (1018.4 mb)
[Sea-level pressure: 1018.4 mb]
Winds: from the ENE (60 degrees) at 6 MPH (5 knots; 2.6 m/s)
Visibility: 10 or more miles (16+ km)
Ceiling: 11000 feet AGL
Clouds: few clouds at 8000 feet AGL
broken clouds at 11000 feet AGL
Present Weather: VCTS -RA  (thunderstorm in vicinity, light rain)
SOME DATA ABOVE MAY BE INACCURATE!!!
"$" is an indication the sensor requires maintenance
KPGD 270553Z AUTO 06005KT 10SM VCTS -RA FEW080 BKN110 25/23 A3007 RMK AO2 LTG DSNT ALQDS RAB52 SLP184 P0000 60028 T02500233 10278 20244 53001 $

Conditions at: KPGD observed 27 July 2017  05:49 UTC
Temperature: 25.0°C (77°F)
Dewpoint: 23.0°C (73°F) [RH = 89%]
Pressure (altimeter): 30.07 inches Hg (1018.4 mb)
Winds: from the E (80 degrees) at 3 MPH (3 knots; 1.6 m/s)
Visibility: 10 or more miles (16+ km)
Ceiling: 11000 feet AGL
Clouds: few clouds at 8000 feet AGL
few clouds at 9000 feet AGL
broken clouds at 11000 feet AGL
Present Weather: VCTS  (thunderstorm in vicinity)
SOME DATA ABOVE MAY BE INACCURATE!!!
"$" is an indication the sensor requires maintenance
KPGD 270549Z AUTO 08003KT 10SM VCTS FEW080 FEW090 BKN110 25/23 A3007 RMK AO2 LTG DSNT NE AND SW AND W $

Conditions at: KPGD observed 27 July 2017  05:19 UTC
Temperature: 25.0°C (77°F)
Dewpoint: 23.3°C (74°F) [RH = 90%]
Pressure (altimeter): 30.07 inches Hg (1018.4 mb)
Winds: from the SE (130 degrees) at 5 MPH (4 knots; 2.1 m/s)
Visibility: 10 or more miles (16+ km)
Ceiling: 12000 feet AGL
Clouds: few clouds at 5500 feet AGL
overcast cloud deck at 12000 feet AGL
Present Weather:
SOME DATA ABOVE MAY BE INACCURATE!!!
"$" is an indication the sensor requires maintenance
KPGD 270519Z AUTO 13004KT 10SM FEW055 OVC120 25/23 A3007 RMK AO2 LTG DSNT ALQDS T02500233 $

Conditions at: KPGD observed 27 July 2017  04:53 UTC
Temperature: 25.0°C (77°F)
Dewpoint: 22.8°C (73°F) [RH = 88%]
Pressure (altimeter): 30.07 inches Hg (1018.4 mb)
[Sea-level pressure: 1018.4 mb]
Winds: from the NW (310 degrees) at 3 MPH (3 knots; 1.6 m/s)
Visibility: 10 or more miles (16+ km)
Ceiling: 11000 feet AGL
Clouds: overcast cloud deck at 11000 feet AGL
Present Weather: VCTS  (thunderstorm in vicinity)
SOME DATA ABOVE MAY BE INACCURATE!!!
"$" is an indication the sensor requires maintenance
KPGD 270453Z AUTO 31003KT 10SM VCTS OVC110 25/23 A3007 RMK AO2 LTG DSNT ALQDS RAE28 TSE00 SLP184 P0004 T02500228 403610244 $

Conditions at: KPGD observed 27 July 2017  04:40 UTC
Temperature: 24.4°C (76°F)
Dewpoint: 22.2°C (72°F) [RH = 88%]
Pressure (altimeter): 30.06 inches Hg (1018.0 mb)
Winds: from the E (80 degrees) at 3 MPH (3 knots; 1.6 m/s)
Visibility: 10 or more miles (16+ km)
Ceiling: 10000 feet AGL
Clouds: overcast cloud deck at 10000 feet AGL
Present Weather: VCTS  (thunderstorm in vicinity)
SOME DATA ABOVE MAY BE INACCURATE!!!
"$" is an indication the sensor requires maintenance
KPGD 270440Z AUTO 08003KT 10SM VCTS OVC100 24/22 A3006 RMK AO2 LTG DSNT ALQDS RAE28 TSE00 P0004 T02440222 $

Conditions at: KPGD observed 27 July 2017  04:16 UTC
Temperature: 25.0°C (77°F)
Dewpoint: 22.2°C (72°F) [RH = 84%]
Pressure (altimeter): 30.06 inches Hg (1018.0 mb)
Winds: from the SW (230 degrees) at 8 MPH (7 knots; 3.6 m/s)
Visibility: 9 miles (14 km)
Ceiling: 7000 feet AGL
Clouds: few clouds at 3700 feet AGL
broken clouds at 7000 feet AGL
overcast cloud deck at 10000 feet AGL
Present Weather: -RA  (light rain)
SOME DATA ABOVE MAY BE INACCURATE!!!
"$" is an indication the sensor requires maintenance
KPGD 270416Z AUTO 23007KT 9SM -RA FEW037 BKN070 OVC100 25/22 A3006 RMK AO2 TSE00 P0004 T02500222 $

Conditions at: KPGD observed 27 July 2017  04:06 UTC
Temperature: 25.0°C (77°F)
Dewpoint: 22.8°C (73°F) [RH = 88%]
Pressure (altimeter): 30.06 inches Hg (1018.0 mb)
Winds: from the SW (230 degrees) at 7 MPH (6 knots; 3.1 m/s)
Visibility: 5 miles (8 km)
Ceiling: 7000 feet AGL
Clouds: scattered clouds at 5500 feet AGL
broken clouds at 7000 feet AGL
overcast cloud deck at 9500 feet AGL
Present Weather: VCTS RA BR  (thunderstorm in vicinity, rain, mist)
SOME DATA ABOVE MAY BE INACCURATE!!!
"$" is an indication the sensor requires maintenance
KPGD 270406Z AUTO 23006KT 5SM VCTS RA BR SCT055 BKN070 OVC095 25/23 A3006 RMK AO2 LTG DSNT ALQDS TSE00 P0004 T02500228 $

Conditions at: KPGD observed 27 July 2017  03:56 UTC
Temperature: 25.6°C (78°F)
Dewpoint: 23.9°C (75°F) [RH = 90%]
Pressure (altimeter): 30.07 inches Hg (1018.4 mb)
Winds: from the S (180 degrees) at 10 MPH (9 knots; 4.7 m/s)
Visibility: 3 miles (5 km)
Ceiling: 5500 feet AGL
Clouds: scattered clouds at 4500 feet AGL
broken clouds at 5500 feet AGL
overcast cloud deck at 7000 feet AGL
Present Weather: +TSRA BR  (heavy rain associated with thunderstorm(s), mist)
SOME DATA ABOVE MAY BE INACCURATE!!!
"$" is an indication the sensor requires maintenance
KPGD 270356Z AUTO 18009KT 3SM +TSRA BR SCT045 BKN055 OVC070 26/24 A3007 RMK AO2 LTG DSNT ALQDS P0001 T02560239 $

Conditions at: KPGD observed 27 July 2017  03:53 UTC
Temperature: 25.6°C (78°F)
Dewpoint: 23.9°C (75°F) [RH = 90%]
Pressure (altimeter): 30.07 inches Hg (1018.4 mb)
[Sea-level pressure: 1018.4 mb]
Winds: from the S (190 degrees) at 12 MPH (10 knots; 5.2 m/s)
Visibility: 2.50 miles (4.02 km)
Ceiling: 5500 feet AGL
Clouds: few clouds at 1100 feet AGL
scattered clouds at 4500 feet AGL
overcast cloud deck at 5500 feet AGL
Present Weather: +TSRA BR  (heavy rain associated with thunderstorm(s), mist)
SOME DATA ABOVE MAY BE INACCURATE!!!
"$" is an indication the sensor requires maintenance
KPGD 270353Z AUTO 19010KT 2 1/2SM +TSRA BR FEW011 SCT045 OVC055 26/24 A3007 RMK AO2 LTG DSNT ALQDS RAB40 SLP184 P0024 T02560239 $

Conditions at: KPGD observed 27 July 2017  02:53 UTC
Temperature: 26.7°C (80°F)
Dewpoint: 23.3°C (74°F) [RH = 82%]
Pressure (altimeter): 30.06 inches Hg (1018.0 mb)
[Sea-level pressure: 1018.0 mb]
Winds: from the ESE (120 degrees) at 3 MPH (3 knots; 1.6 m/s)
Visibility: 10 or more miles (16+ km)
Ceiling: 8000 feet AGL
Clouds: scattered clouds at 4500 feet AGL
broken clouds at 8000 feet AGL
overcast cloud deck at 11000 feet AGL
Present Weather: TS  (thunderstorm)
SOME DATA ABOVE MAY BE INACCURATE!!!
"$" is an indication the sensor requires maintenance
KPGD 270253Z AUTO 12003KT 10SM TS SCT045 BKN080 OVC110 27/23 A3006 RMK AO2 LTG DSNT ALQDS TSB48 SLP180 T02670233 53013 $

Conditions at: KPGD observed 27 July 2017  02:25 UTC
Temperature: 27.2°C (81°F)
Dewpoint: 23.3°C (74°F) [RH = 79%]
Pressure (altimeter): 30.05 inches Hg (1017.7 mb)
Winds: from the E (90 degrees) at 3 MPH (3 knots; 1.6 m/s)
Visibility: 10 or more miles (16+ km)
Ceiling: 7500 feet AGL
Clouds: few clouds at 5500 feet AGL
overcast cloud deck at 7500 feet AGL
Present Weather: VCTS  (thunderstorm in vicinity)
SOME DATA ABOVE MAY BE INACCURATE!!!
"$" is an indication the sensor requires maintenance
KPGD 270225Z AUTO 09003KT 10SM VCTS FEW055 OVC075 27/23 A3005 RMK AO2 LTG DSNT S T02720233 $

Conditions at: KPGD observed 27 July 2017  01:53 UTC
Temperature: 27.2°C (81°F)
Dewpoint: 23.3°C (74°F) [RH = 79%]
Pressure (altimeter): 30.04 inches Hg (1017.4 mb)
[Sea-level pressure: 1017.4 mb]
Winds: from the NE (40 degrees) at 5 MPH (4 knots; 2.1 m/s)
Visibility: 10 or more miles (16+ km)
Ceiling: at least 12,000 feet AGL
Clouds: scattered clouds at 5500 feet AGL
scattered clouds at 8000 feet AGL
Present Weather:
SOME DATA ABOVE MAY BE INACCURATE!!!
"$" is an indication the sensor requires maintenance
KPGD 270153Z AUTO 04004KT 10SM SCT055 SCT080 27/23 A3004 RMK AO2 SLP174 T02720233 $

Conditions at: KPGD observed 27 July 2017  00:53 UTC
Temperature: 27.8°C (82°F)
Dewpoint: 23.9°C (75°F) [RH = 79%]
Pressure (altimeter): 30.03 inches Hg (1017.0 mb)
[Sea-level pressure: 1016.8 mb]
Winds: from the NE (50 degrees) at 7 MPH (6 knots; 3.1 m/s)
Visibility: 10 or more miles (16+ km)
Ceiling: 5500 feet AGL
Clouds: broken clouds at 5500 feet AGL
Present Weather:
SOME DATA ABOVE MAY BE INACCURATE!!!
"$" is an indication the sensor requires maintenance
KPGD 270053Z 05006KT 10SM BKN055 28/24 A3003 RMK AO2 LTG DSNT S SLP168 T02780239 $

Conditions at: KPGD observed 27 July 2017  00:25 UTC
Temperature: 27.2°C (81°F)
Dewpoint: 22.2°C (72°F) [RH = 74%]
Pressure (altimeter): 30.03 inches Hg (1017.0 mb)
Winds: from the E (100 degrees) at 5 MPH (4 knots; 2.1 m/s)
Visibility: 10 or more miles (16+ km)
Ceiling: at least 12,000 feet AGL
Clouds: sky clear below 12,000 feet AGL
Present Weather:
SOME DATA ABOVE MAY BE INACCURATE!!!
"$" is an indication the sensor requires maintenance
KPGD 270025Z 10004KT 10SM CLR 27/22 A3003 RMK AO2 T02720222 $

Conditions at: KPGD observed 27 July 2017  00:10 UTC
Temperature: 27.2°C (81°F)
Dewpoint: 22.8°C (73°F) [RH = 77%]
Pressure (altimeter): 30.03 inches Hg (1017.0 mb)
Winds: from the N (350 degrees) at 9 MPH (8 knots; 4.2 m/s)
Visibility: 10 or more miles (16+ km)
Ceiling: at least 12,000 feet AGL
Clouds: sky clear below 12,000 feet AGL
Present Weather: VCTS  (thunderstorm in vicinity)
SOME DATA ABOVE MAY BE INACCURATE!!!
"$" is an indication the sensor requires maintenance
KPGD 270010Z 35008KT 10SM VCTS CLR 27/23 A3003 RMK AO2 LTG DSNT N AND NW T02720228 $

Conditions at: KPGD observed 27 July 2017  00:02 UTC
Temperature: 27.8°C (82°F)
Dewpoint: 23.3°C (74°F) [RH = 77%]
Pressure (altimeter): 30.02 inches Hg (1016.7 mb)
Winds: from the NNW (340 degrees) at 8 MPH (7 knots; 3.6 m/s)
Visibility: 10 or more miles (16+ km)
Ceiling: at least 12,000 feet AGL
Clouds: sky clear below 12,000 feet AGL
Present Weather:
SOME DATA ABOVE MAY BE INACCURATE!!!
"$" is an indication the sensor requires maintenance
KPGD 270002Z 34007KT 10SM CLR 28/23 A3002 RMK AO2 LTG DSNT N AND NW T02780233 $

Conditions at: KPGD observed 26 July 2017  23:53 UTC
Temperature: 27.8°C (82°F)
Dewpoint: 22.8°C (73°F) [RH = 74%]
Pressure (altimeter): 30.02 inches Hg (1016.7 mb)
[Sea-level pressure: 1016.7 mb]
Winds: from the NNW (330 degrees) at 9 MPH (8 knots; 4.2 m/s)
Visibility: 10 or more miles (16+ km)
Ceiling: at least 12,000 feet AGL
Clouds: sky clear below 12,000 feet AGL
Present Weather: VCTS  (thunderstorm in vicinity)
SOME DATA ABOVE MAY BE INACCURATE!!!
"$" is an indication the sensor requires maintenance
KPGD 262353Z 33008KT 10SM VCTS CLR 28/23 A3002 RMK AO2 LTG DSNT N AND E TSB03E43 SLP167 60070 T02780228 10361 20267 51006 $

Conditions at: KPGD observed 26 July 2017  23:49 UTC
Temperature: 28.0°C (82°F)
Dewpoint: 23.0°C (73°F) [RH = 74%]
Pressure (altimeter): 30.02 inches Hg (1016.7 mb)
Winds: from the NNW (340 degrees) at 8 MPH (7 knots; 3.6 m/s)
Visibility: 10 or more miles (16+ km)
Ceiling: at least 12,000 feet AGL
Clouds: sky clear below 12,000 feet AGL
Present Weather: VCTS  (thunderstorm in vicinity)
SOME DATA ABOVE MAY BE INACCURATE!!!
"$" is an indication the sensor requires maintenance
KPGD 262349Z 34007KT 10SM VCTS CLR 28/23 A3002 RMK AO2 LTG DSNT N-E TSB03E43 $

Conditions at: KPGD observed 26 July 2017  23:13 UTC
Temperature: 28.9°C (84°F)
Dewpoint: 24.4°C (76°F) [RH = 77%]
Pressure (altimeter): 30.00 inches Hg (1016.0 mb)
Winds: from the NNE (20 degrees) at 6 MPH (5 knots; 2.6 m/s)
Visibility: 10 or more miles (16+ km)
Ceiling: at least 12,000 feet AGL
Clouds: sky clear below 12,000 feet AGL
Present Weather: TS  (thunderstorm)
SOME DATA ABOVE MAY BE INACCURATE!!!
"$" is an indication the sensor requires maintenance
KPGD 262313Z 02005KT 10SM TS CLR 29/24 A3000 RMK AO2 LTG DSNT ALQDS TSB03 T02890244 $

Conditions at: KPGD observed 26 July 2017  23:03 UTC
Temperature: 28.9°C (84°F)
Dewpoint: 25.6°C (78°F) [RH = 82%]
Pressure (altimeter): 30.01 inches Hg (1016.3 mb)
Winds: from the NNW (330 degrees) at 8 MPH (7 knots; 3.6 m/s)
Visibility: 1.50 miles (2.41 km)
Ceiling: at least 12,000 feet AGL
Clouds: few clouds at 11000 feet AGL
Present Weather: TS HZ  (thunderstorm, haze)
SOME DATA ABOVE MAY BE INACCURATE!!!
"$" is an indication the sensor requires maintenance
KPGD 262303Z 33007KT 1 1/2SM TS HZ FEW110 29/26 A3001 RMK AO2 LTG DSNT ALQDS TSB03 T02890256 $

Conditions at: KPGD observed 26 July 2017  22:53 UTC
Temperature: 28.3°C (83°F)
Dewpoint: 25.6°C (78°F) [RH = 85%]
Pressure (altimeter): 30.01 inches Hg (1016.3 mb)
[Sea-level pressure: 1016.2 mb]
Winds: from the NW (310 degrees) at 6 MPH (5 knots; 2.6 m/s)
Visibility: 10 or more miles (16+ km)
Ceiling: at least 12,000 feet AGL
Clouds: few clouds at 7500 feet AGL
scattered clouds at 11000 feet AGL
Present Weather: VCTS  (thunderstorm in vicinity)
KPGD 262253Z 31005KT 10SM VCTS FEW075 SCT110 28/26 A3001 RMK AO2 WSHFT 2142 LTG DSNT ALQDS RAE46 TSE37 SLP162 P0040 T02830256

Conditions at: KPGD observed 26 July 2017  22:43 UTC
Temperature: 28.9°C (84°F)
Dewpoint: 23.9°C (75°F) [RH = 74%]
Pressure (altimeter): 30.01 inches Hg (1016.3 mb)
Winds: from the W (270 degrees) at 5 MPH (4 knots; 2.1 m/s)
Visibility: 10 or more miles (16+ km)
Ceiling: 11000 feet AGL
Clouds: few clouds at 7000 feet AGL
few clouds at 9000 feet AGL
broken clouds at 11000 feet AGL
Present Weather: VCTS -RA  (thunderstorm in vicinity, light rain)
KPGD 262243Z 27004KT 10SM VCTS -RA FEW070 FEW090 BKN110 29/24 A3001 RMK AO2 WSHFT 2142 LTG DSNT ALQDS TSE37 P0040 T02890239

Conditions at: KPGD observed 26 July 2017  22:20 UTC
Temperature: 28.3°C (83°F)
Dewpoint: 22.8°C (73°F) [RH = 72%]
Pressure (altimeter): 30.01 inches Hg (1016.3 mb)
Winds: from the WNW (300 degrees) at 10 MPH (9 knots; 4.7 m/s)
Visibility: 3 miles (5 km)
Ceiling: 7500 feet AGL
Clouds: few clouds at 2200 feet AGL
broken clouds at 7500 feet AGL
overcast cloud deck at 10000 feet AGL
Present Weather: TSRA  (rain associated with thunderstorm(s))
KPGD 262220Z 30009KT 3SM TSRA FEW022 BKN075 OVC100 28/23 A3001 RMK AO2 WSHFT 2142 LTG DSNT NE-S P0039 T02830228

Conditions at: KPGD observed 26 July 2017  22:07 UTC
Temperature: 27.2°C (81°F)
Dewpoint: 21.7°C (71°F) [RH = 72%]
Pressure (altimeter): 30.02 inches Hg (1016.7 mb)
Winds: from the NW (310 degrees) at 12 MPH (10 knots; 5.2 m/s)
gusting to 21 MPH (18 knots; 9.4 m/s)
Visibility: 1.00 miles (1.61 km)
Ceiling: 4000 feet AGL
Clouds: scattered clouds at 2400 feet AGL
broken clouds at 4000 feet AGL
overcast cloud deck at 8000 feet AGL
Present Weather: +TSRA  (heavy rain associated with thunderstorm(s))
KPGD 262207Z 31010G18KT 1SM +TSRA SCT024 BKN040 OVC080 27/22 A3002 RMK AO2 WSHFT 2142 LTG DSNT NE-S P0031 T02720217

Conditions at: KPGD observed 26 July 2017  22:00 UTC
Temperature: 27.8°C (82°F)
Dewpoint: 21.1°C (70°F) [RH = 67%]
Pressure (altimeter): 30.02 inches Hg (1016.7 mb)
Winds: from the W (280 degrees) at 14 MPH (12 knots; 6.2 m/s)
gusting to 44 MPH (38 knots; 19.8 m/s)
Visibility: 0.25 miles (0.40 km)
Ceiling: 2200 feet AGL
Clouds: broken clouds at 2200 feet AGL
overcast cloud deck at 4000 feet AGL
Present Weather: +TSRA  (heavy rain associated with thunderstorm(s))
KPGD 262200Z 28012G38KT 1/4SM +TSRA BKN022 OVC040 28/21 A3002 RMK AO2 WSHFT 2142 LTG DSNT NE-S P0019 T02780211

Conditions at: KPGD observed 26 July 2017  21:53 UTC
Temperature: 27.8°C (82°F)
Dewpoint: 23.3°C (74°F) [RH = 77%]
Pressure (altimeter): 30.00 inches Hg (1016.0 mb)
[Sea-level pressure: 1016.0 mb]
Winds: from the W (280 degrees) at 29 MPH (25 knots; 13.0 m/s)
gusting to 44 MPH (38 knots; 19.8 m/s)
Visibility: 0.50 miles (0.80 km)
Ceiling: 4200 feet AGL
Clouds: scattered clouds at 3200 feet AGL
overcast cloud deck at 4200 feet AGL
Present Weather: +TSRA  (heavy rain associated with thunderstorm(s))
KPGD 262153Z 28025G38KT 1/2SM +TSRA SCT032 OVC042 28/23 A3000 RMK AO2 PK WND 27038/2151 LTG DSNT NE-S RAB41 TSB33 SLP160 P0030 T02780233

Conditions at: KPGD observed 26 July 2017  21:46 UTC
Temperature: 30.6°C (87°F)
Dewpoint: 25.6°C (78°F) [RH = 75%]
Pressure (altimeter): 30.02 inches Hg (1016.7 mb)
Winds: from the SSW (210 degrees) at 24 MPH (21 knots; 10.9 m/s)
gusting to 30 MPH (26 knots; 13.5 m/s)
Visibility: 1.75 miles (2.82 km)
Ceiling: 3900 feet AGL
Clouds: broken clouds at 3900 feet AGL
overcast cloud deck at 4900 feet AGL
Present Weather: +TSRA  (heavy rain associated with thunderstorm(s))
KPGD 262146Z 21021G26KT 190V250 1 3/4SM +TSRA BKN039 OVC049 31/26 A3002 RMK AO2 PK WND 22026/2146 LTG DSNT NE-S RAB41 TSB33 P0009 T03060256

Conditions at: KPGD observed 26 July 2017  21:39 UTC
Temperature: 31.7°C (89°F)
Dewpoint: 23.3°C (74°F) [RH = 61%]
Pressure (altimeter): 30.01 inches Hg (1016.3 mb)
Winds: from the SSE (160 degrees) at 13 MPH (11 knots; 5.7 m/s)
Visibility: 10 or more miles (16+ km)
Ceiling: 4200 feet AGL
Clouds: broken clouds at 4200 feet AGL
overcast cloud deck at 4900 feet AGL
Present Weather: TS  (thunderstorm)
KPGD 262139Z 16011KT 10SM TS BKN042 OVC049 32/23 A3001 RMK AO2 LTG DSNT NE-S TSB33 T03170233

Conditions at: KPGD observed 26 July 2017  20:53 UTC
Temperature: 35.0°C (95°F)
Dewpoint: 22.8°C (73°F) [RH = 49%]
Pressure (altimeter): 30.02 inches Hg (1016.7 mb)
[Sea-level pressure: 1016.6 mb]
Winds: calm
Visibility: 10 or more miles (16+ km)
Ceiling: 5000 feet AGL
Clouds: broken clouds at 5000 feet AGL
Present Weather: no significant weather observed at this time
KPGD 262053Z 00000KT 10SM BKN050 35/23 A3002 RMK AO2 LTG DSNT E SLP166 T03500228 56024

Conditions at: KPGD observed 26 July 2017  19:53 UTC
Temperature: 35.6°C (96°F)
Dewpoint: 23.3°C (74°F) [RH = 49%]
Pressure (altimeter): 30.03 inches Hg (1017.0 mb)
[Sea-level pressure: 1017.0 mb]
Winds: from the WNW (300 degrees) at 7 MPH (6 knots; 3.1 m/s)
Visibility: 10 or more miles (16+ km)
Ceiling: at least 12,000 feet AGL
Clouds: scattered clouds at 5000 feet AGL
Present Weather: no significant weather observed at this time
KPGD 261953Z 30006KT 10SM SCT050 36/23 A3003 RMK AO2 SLP170 T03560233

Conditions at: KPGD observed 26 July 2017  18:53 UTC
Temperature: 34.4°C (94°F)
Dewpoint: 23.3°C (74°F) [RH = 53%]
Pressure (altimeter): 30.07 inches Hg (1018.4 mb)
[Sea-level pressure: 1018.1 mb]
Winds: from the NW (310 degrees) at 5 MPH (4 knots; 2.1 m/s)
Visibility: 10 or more miles (16+ km)
Ceiling: at least 12,000 feet AGL
Clouds: scattered clouds at 4500 feet AGL
Present Weather: no significant weather observed at this time
KPGD 261853Z 31004KT 10SM SCT045 34/23 A3007 RMK AO2 LTG DSNT S SLP181 T03440233